createdAt,value
2017-10-05T00:00:03.152Z,75.8
2017-10-05T00:05:20.519Z,75.7
2017-10-05T00:10:05.577Z,76.5
2017-10-05T00:15:03.231Z,76.5
2017-10-05T00:20:05.501Z,76.2
2017-10-05T00:25:07.676Z,76.5
2017-10-05T00:30:05.873Z,76.4
2017-10-05T00:35:05.503Z,76.6
2017-10-05T00:40:03.339Z,76.5
2017-10-05T00:45:03.386Z,77.1
2017-10-05T00:50:05.687Z,76.7
2017-10-05T00:55:10.436Z,77
2017-10-05T01:00:10.239Z,77.3
2017-10-05T01:05:03.188Z,77.3
2017-10-05T01:10:08.566Z,77
2017-10-05T01:15:05.131Z,76.9
2017-10-05T01:20:03.414Z,76.9
2017-10-05T01:25:03.067Z,77.3
2017-10-05T01:30:07.947Z,77.1
2017-10-05T01:35:03.484Z,77.2
2017-10-05T01:40:12.883Z,77.4
2017-10-05T01:45:02.902Z,77.5
2017-10-05T01:50:10.329Z,78
2017-10-05T02:00:07.862Z,78.5
2017-10-05T02:05:18.037Z,78.3
2017-10-05T02:10:08.345Z,78.5
2017-10-05T02:15:03.325Z,78.4
2017-10-05T02:20:05.712Z,78.6
2017-10-05T02:25:05.409Z,78.6
2017-10-05T02:30:02.631Z,78.6
2017-10-05T02:35:05.758Z,79
2017-10-05T02:40:07.632Z,79.2
2017-10-05T02:45:02.645Z,79.2
2017-10-05T02:50:03.455Z,78.9
2017-10-05T02:55:03.142Z,78.9
2017-10-05T03:00:05.453Z,79.6
2017-10-05T03:05:03.511Z,79.6
2017-10-05T03:10:02.732Z,80.2
2017-10-05T03:15:02.970Z,80.7
2017-10-05T03:20:02.732Z,80.6
2017-10-05T03:25:05.950Z,81.6
2017-10-05T03:30:05.802Z,82.5
2017-10-05T03:35:07.945Z,82.2
2017-10-05T03:40:05.808Z,82.9
2017-10-05T03:45:06.000Z,83.5
2017-10-05T03:50:03.288Z,83.6
2017-10-05T03:55:02.921Z,85
2017-10-05T04:00:12.954Z,88.4
2017-10-05T04:05:05.963Z,89.9
2017-10-05T04:10:05.217Z,90.5
2017-10-05T04:15:05.433Z,91.2
2017-10-05T04:20:05.246Z,91.2
2017-10-05T04:25:02.891Z,91.2
2017-10-05T04:35:12.822Z,92.8
2017-10-05T04:40:02.993Z,92.7
2017-10-05T04:45:03.128Z,93.1
2017-10-05T04:50:07.905Z,93
2017-10-05T04:55:08.552Z,93.7
2017-10-05T05:00:05.817Z,94
2017-10-05T05:05:02.853Z,94
2017-10-05T05:10:20.809Z,94.8
2017-10-05T05:15:10.856Z,95
2017-10-05T05:20:13.124Z,95.1
2017-10-05T05:25:05.123Z,95.2
2017-10-05T05:30:03.401Z,95.2
2017-10-05T05:35:05.505Z,95.7
2017-10-05T05:40:13.390Z,95.9
2017-10-05T05:45:23.058Z,95.9
2017-10-05T05:50:03.536Z,95.9
2017-10-05T05:55:08.553Z,96.2
2017-10-05T06:00:21.019Z,96
2017-10-05T06:05:07.913Z,96.3
2017-10-05T06:10:08.143Z,96
2017-10-05T06:15:18.358Z,96.3
2017-10-05T06:20:02.854Z,96.3
2017-10-05T06:25:03.427Z,96.3
2017-10-05T06:30:05.787Z,96.3
2017-10-05T06:35:05.347Z,96.1
2017-10-05T06:40:13.182Z,96.3
2017-10-05T06:45:10.757Z,96.1
2017-10-05T06:50:05.468Z,96.6
2017-10-05T07:00:05.762Z,96.4
2017-10-05T07:05:13.014Z,96.4
2017-10-05T07:10:08.155Z,96.6
2017-10-05T07:15:03.177Z,96.6
2017-10-05T07:20:02.953Z,96.5
2017-10-05T07:25:02.567Z,96.6
2017-10-05T07:30:10.959Z,96.5
2017-10-05T07:35:05.524Z,96.7
2017-10-05T07:40:03.289Z,96.7
2017-10-05T07:45:03.355Z,97.1
2017-10-05T07:50:05.643Z,97
2017-10-05T07:55:15.388Z,97
2017-10-05T08:00:05.977Z,97.1
2017-10-05T08:05:03.076Z,97.1
2017-10-05T08:10:10.965Z,97.2
2017-10-05T08:15:06.034Z,97
2017-10-05T08:20:10.870Z,97.2
2017-10-05T08:25:10.493Z,97.2
2017-10-05T08:30:05.257Z,97.3
2017-10-05T08:35:23.626Z,97.4
2017-10-05T08:40:02.733Z,97.4
2017-10-05T08:45:05.337Z,97.8
2017-10-05T08:50:02.568Z,97.8
2017-10-05T08:55:05.688Z,98.1
2017-10-05T09:00:13.042Z,98.2
2017-10-05T09:05:03.477Z,98.2
2017-10-05T09:10:02.747Z,98
2017-10-05T09:15:05.377Z,97.9
2017-10-05T09:20:02.626Z,98
2017-10-05T09:25:10.855Z,98
2017-10-05T09:35:05.179Z,97.8
2017-10-05T09:40:02.978Z,97.8
2017-10-05T09:45:23.299Z,97.8
2017-10-05T09:50:07.945Z,97.8
2017-10-05T09:55:06.040Z,97.8
2017-10-05T10:00:03.245Z,97.8
2017-10-05T10:05:10.445Z,98
2017-10-05T10:10:10.768Z,98
2017-10-05T10:15:10.843Z,98.2
2017-10-05T10:20:25.745Z,98.3
2017-10-05T10:25:10.213Z,98.4
2017-10-05T10:30:11.025Z,98.4
2017-10-05T10:35:05.553Z,98.4
2017-10-05T10:40:03.391Z,98.3
2017-10-05T10:45:06.005Z,98.5
2017-10-05T10:50:15.876Z,98.2
2017-10-05T10:55:02.879Z,98.2
2017-10-05T11:00:20.395Z,98.6
2017-10-05T11:05:08.375Z,98.3
2017-10-05T11:10:07.754Z,98.5
2017-10-05T11:20:02.589Z,98.7
2017-10-05T11:25:03.173Z,98.4
2017-10-05T11:30:10.611Z,98.5
2017-10-05T11:35:02.561Z,98.5
2017-10-05T11:40:05.399Z,98.1
2017-10-05T11:45:08.049Z,98.2
2017-10-05T11:50:38.278Z,98.1
2017-10-05T11:55:23.765Z,97.8
2017-10-05T12:00:03.358Z,97.8
2017-10-05T12:05:05.568Z,96.5
2017-10-05T12:10:13.570Z,95.8
2017-10-05T12:15:02.616Z,95.8
2017-10-05T12:20:06.070Z,95.3
2017-10-05T12:25:08.273Z,94.9
2017-10-05T12:30:05.694Z,94.3
2017-10-05T12:35:02.961Z,94.4
2017-10-05T12:40:08.436Z,93.8
2017-10-05T12:45:07.724Z,94.2
2017-10-05T12:50:03.479Z,94.2
2017-10-05T12:55:10.900Z,94.4
2017-10-05T13:00:10.814Z,94.4
2017-10-05T13:05:03.008Z,94.4
2017-10-05T13:10:16.122Z,95
2017-10-05T13:15:10.253Z,94.5
2017-10-05T13:20:03.564Z,94.5
2017-10-05T13:25:05.882Z,94.4
2017-10-05T13:30:03.236Z,94.3
2017-10-05T13:35:03.073Z,93.6
2017-10-05T13:40:23.691Z,91.5
2017-10-05T13:45:17.889Z,87
2017-10-05T13:50:03.519Z,87
2017-10-05T13:55:05.803Z,80
2017-10-05T14:00:03.199Z,79.9
2017-10-05T14:05:02.891Z,81.2
2017-10-05T14:10:03.265Z,80.2
2017-10-05T14:15:03.365Z,87.1
2017-10-05T14:20:03.142Z,88.6
2017-10-05T14:25:07.755Z,91.4
2017-10-05T14:30:05.927Z,93.2
2017-10-05T14:35:02.768Z,93.2
2017-10-05T14:40:08.023Z,92.4
2017-10-05T14:45:05.404Z,91.6
2017-10-05T14:50:03.504Z,91.6
2017-10-05T14:55:10.398Z,87.8
2017-10-05T15:00:03.400Z,87.8
2017-10-05T15:05:05.298Z,84.7
2017-10-05T15:10:30.741Z,85
2017-10-05T15:15:12.857Z,85.4
2017-10-05T15:20:03.288Z,85.5
2017-10-05T15:25:05.218Z,81.8
2017-10-05T15:30:05.736Z,80.4
2017-10-05T15:35:06.089Z,80.6
2017-10-05T15:40:07.822Z,81.1
2017-10-05T15:45:21.216Z,82
2017-10-05T15:50:33.540Z,81.9
2017-10-05T15:55:11.074Z,83.1
2017-10-05T16:00:05.630Z,83.7
2017-10-05T16:05:08.425Z,84.2
2017-10-05T16:10:03.491Z,84.1
2017-10-05T16:15:08.416Z,84.2
2017-10-05T16:20:05.463Z,85.2
2017-10-05T16:25:10.934Z,85.4
2017-10-05T16:30:02.865Z,85.4
2017-10-05T16:35:03.246Z,85.4
2017-10-05T16:40:03.413Z,85.8
2017-10-05T16:45:05.850Z,85.8
2017-10-05T16:50:02.976Z,85.8
2017-10-05T16:55:08.370Z,85.6
2017-10-05T17:00:15.632Z,85.9
2017-10-05T17:05:10.947Z,85.7
2017-10-05T17:10:03.550Z,85.7
2017-10-05T17:15:08.614Z,86.1
2017-10-05T17:20:03.123Z,86
2017-10-05T17:25:02.598Z,86.3
2017-10-05T17:30:13.335Z,86.5
2017-10-05T17:35:07.673Z,87.3
2017-10-05T17:40:02.822Z,87.2
2017-10-05T17:45:02.712Z,87.4
2017-10-05T17:50:03.362Z,86.8
2017-10-05T17:55:05.418Z,87.2
2017-10-05T18:00:13.701Z,87.2
2017-10-05T18:05:05.500Z,86.9
2017-10-05T18:10:03.201Z,86.9
2017-10-05T18:15:05.689Z,87
2017-10-05T18:20:12.976Z,87
2017-10-05T18:25:05.849Z,86.8
2017-10-05T18:30:03.032Z,86.8
2017-10-05T18:35:11.098Z,87.7
2017-10-05T18:40:10.288Z,87.5
2017-10-05T18:45:17.875Z,87.8
2017-10-05T18:50:23.580Z,88.2
2017-10-05T18:55:02.800Z,88.2
2017-10-05T19:00:28.800Z,88.1
2017-10-05T19:05:05.542Z,88.1
2017-10-05T19:15:03.124Z,88.4
2017-10-05T19:20:23.004Z,88.7
2017-10-05T19:25:03.206Z,88.8
2017-10-05T19:30:02.911Z,87.9
2017-10-05T19:35:23.599Z,88.3
2017-10-05T19:40:05.206Z,88.1
2017-10-05T19:45:02.641Z,88.2
2017-10-05T19:50:03.303Z,88.4
2017-10-05T19:55:02.842Z,88.3
2017-10-05T20:00:06.073Z,87.9
2017-10-05T20:05:03.067Z,87.9
2017-10-05T20:10:03.376Z,87.6
2017-10-05T20:15:03.311Z,87.1
2017-10-05T20:20:05.513Z,87.4
2017-10-05T20:25:18.602Z,87.7
2017-10-05T20:30:03.100Z,87.7
2017-10-05T20:35:02.642Z,87.8
2017-10-05T20:40:02.817Z,87.8
2017-10-05T20:45:28.057Z,87.8
2017-10-05T20:50:05.963Z,87.7
2017-10-05T20:55:25.634Z,88.2
2017-10-05T21:00:06.062Z,88.5
2017-10-05T21:05:02.941Z,88.5
2017-10-05T21:10:08.275Z,88.9
2017-10-05T21:15:03.161Z,88.9
2017-10-05T21:20:03.048Z,89.3
2017-10-05T21:25:05.887Z,90
2017-10-05T21:30:10.598Z,90.1
2017-10-05T21:35:06.054Z,90.2
2017-10-05T21:40:35.601Z,90.2
2017-10-05T21:45:05.233Z,90.5
2017-10-05T21:50:16.170Z,90.9
2017-10-05T21:55:02.969Z,90.8
2017-10-05T22:00:10.225Z,91
2017-10-05T22:05:10.787Z,91
2017-10-05T22:10:23.666Z,90.9
2017-10-05T22:15:08.392Z,90.9
2017-10-05T22:20:05.612Z,91
2017-10-05T22:25:05.105Z,90.5
2017-10-05T22:35:07.858Z,90.7
2017-10-05T22:40:05.521Z,90.7
2017-10-05T22:45:02.949Z,90.7
2017-10-05T22:50:05.174Z,90.5
2017-10-05T22:55:05.664Z,90.5
2017-10-05T23:00:05.393Z,90.5
2017-10-05T23:05:03.406Z,90.5
2017-10-05T23:10:27.939Z,90.3
2017-10-05T23:15:02.675Z,90.3
2017-10-05T23:20:03.348Z,90.3
2017-10-05T23:25:10.460Z,90.2
2017-10-05T23:30:10.223Z,90.1
2017-10-05T23:35:03.137Z,90.1
2017-10-05T23:40:31.140Z,90.3
2017-10-05T23:45:08.331Z,90.1
2017-10-05T23:50:03.017Z,90.1
2017-10-05T23:55:02.568Z,90.2
